sensor_id;sensor_type;location;lat;lon;timestamp;pressure;altitude;pressure_sealevel;temperature;humidity
69239;BME280;56349;51.816;-0.026;2023-03-01T00:00:31;102693.04;;;21.99;31.47
69239;BME280;56349;51.816;-0.026;2023-03-01T00:02:57;102694.18;;;21.67;31.55
69239;BME280;56349;51.816;-0.026;2023-03-01T00:05:23;102690.85;;;21.97;31.69
69239;BME280;56349;51.816;-0.026;2023-03-01T00:07:52;102690.49;;;21.84;31.83
69239;BME280;56349;51.816;-0.026;2023-03-01T00:10:14;102697.73;;;21.70;31.98
69239;BME280;56349;51.816;-0.026;2023-03-01T00:12:40;102695.46;;;21.57;32.11
69239;BME280;56349;51.816;-0.026;2023-03-01T00:15:07;102699.28;;;21.43;32.28
69239;BME280;56349;51.816;-0.026;2023-03-01T00:17:32;102699.48;;;21.32;32.38
69239;BME280;56349;51.816;-0.026;2023-03-01T00:19:58;102700.48;;;21.22;32.49
69239;BME280;56349;51.816;-0.026;2023-03-01T00:22:24;102701.71;;;21.20;32.54
69239;BME280;56349;51.816;-0.026;2023-03-01T00:24:49;102704.62;;;21.21;32.51
69239;BME280;56349;51.816;-0.026;2023-03-01T00:27:15;102705.73;;;21.18;32.54
69239;BME280;56349;51.816;-0.026;2023-03-01T00:29:41;102706.36;;;21.39;32.58
69239;BME280;56349;51.816;-0.026;2023-03-01T00:32:07;102708.40;;;20.98;32.73
69239;BME280;56349;51.816;-0.026;2023-03-01T00:34:33;102713.23;;;21.09;32.93
69239;BME280;56349;51.816;-0.026;2023-03-01T00:36:58;102712.10;;;20.98;33.06
69239;BME280;56349;51.816;-0.026;2023-03-01T00:39:24;102709.20;;;20.89;33.15
69239;BME280;56349;51.816;-0.026;2023-03-01T00:41:50;102711.54;;;20.79;33.26
69239;BME280;56349;51.816;-0.026;2023-03-01T00:44:16;102708.42;;;20.71;33.34
69239;BME280;56349;51.816;-0.026;2023-03-01T00:46:42;102705.35;;;20.65;33.42
69239;BME280;56349;51.816;-0.026;2023-03-01T00:49:08;102700.85;;;20.59;33.50
69239;BME280;56349;51.816;-0.026;2023-03-01T00:51:34;102697.48;;;20.51;33.55
69239;BME280;56349;51.816;-0.026;2023-03-01T00:54:01;102692.61;;;20.88;33.65
69239;BME280;56349;51.816;-0.026;2023-03-01T00:56:26;102692.92;;;20.36;33.72
69239;BME280;56349;51.816;-0.026;2023-03-01T00:58:51;102687.14;;;20.29;33.80
69239;BME280;56349;51.816;-0.026;2023-03-01T01:01:20;102684.09;;;20.66;33.88
69239;BME280;56349;51.816;-0.026;2023-03-01T01:03:44;102684.67;;;20.15;33.93
69239;BME280;56349;51.816;-0.026;2023-03-01T01:06:14;102682.66;;;20.32;33.98
69239;BME280;56349;51.816;-0.026;2023-03-01T01:08:33;102685.01;;;20.04;34.03
69239;BME280;56349;51.816;-0.026;2023-03-01T01:10:59;102684.59;;;20.44;34.10
69239;BME280;56349;51.816;-0.026;2023-03-01T01:13:24;102682.28;;;20.16;34.15
69239;BME280;56349;51.816;-0.026;2023-03-01T01:15:50;102682.56;;;20.11;34.20
69239;BME280;56349;51.816;-0.026;2023-03-01T01:18:16;102683.84;;;19.82;34.28
69239;BME280;56349;51.816;-0.026;2023-03-01T01:20:42;102684.64;;;19.99;34.32
69239;BME280;56349;51.816;-0.026;2023-03-01T01:23:08;102681.61;;;20.16;34.36
69239;BME280;56349;51.816;-0.026;2023-03-01T01:25:35;102684.77;;;20.11;34.39
69239;BME280;56349;51.816;-0.026;2023-03-01T01:28:00;102681.01;;;20.06;34.47
69239;BME280;56349;51.816;-0.026;2023-03-01T01:30:26;102682.19;;;20.01;34.51
69239;BME280;56349;51.816;-0.026;2023-03-01T01:32:52;102685.67;;;19.76;34.57
69239;BME280;56349;51.816;-0.026;2023-03-01T01:35:18;102682.43;;;19.72;34.66
69239;BME280;56349;51.816;-0.026;2023-03-01T01:37:44;102682.62;;;19.93;34.78
69239;BME280;56349;51.816;-0.026;2023-03-01T01:40:12;102679.31;;;20.17;34.84
69239;BME280;56349;51.816;-0.026;2023-03-01T01:42:36;102674.73;;;20.17;34.92
69239;BME280;56349;51.816;-0.026;2023-03-01T01:47:27;102670.59;;;19.91;35.01
69239;BME280;56349;51.816;-0.026;2023-03-01T01:49:55;102668.83;;;19.93;35.04
69239;BME280;56349;51.816;-0.026;2023-03-01T01:52:21;102664.84;;;20.20;35.09
69239;BME280;56349;51.816;-0.026;2023-03-01T01:54:46;102660.42;;;19.92;35.14
69239;BME280;56349;51.816;-0.026;2023-03-01T01:57:12;102658.56;;;19.70;35.22
69239;BME280;56349;51.816;-0.026;2023-03-01T01:59:34;102655.94;;;19.91;35.24
69239;BME280;56349;51.816;-0.026;2023-03-01T02:02:02;102656.06;;;19.89;35.27
69239;BME280;56349;51.816;-0.026;2023-03-01T02:04:26;102651.65;;;19.89;35.29
69239;BME280;56349;51.816;-0.026;2023-03-01T02:06:57;102649.09;;;19.86;35.34
69239;BME280;56349;51.816;-0.026;2023-03-01T02:09:19;102646.35;;;19.62;35.42
69239;BME280;56349;51.816;-0.026;2023-03-01T02:11:44;102641.87;;;19.84;35.44
69239;BME280;56349;51.816;-0.026;2023-03-01T02:14:09;102637.93;;;19.83;35.46
69239;BME280;56349;51.816;-0.026;2023-03-01T02:16:35;102634.80;;;19.81;35.49
69239;BME280;56349;51.816;-0.026;2023-03-01T02:19:00;102628.35;;;19.81;35.53
69239;BME280;56349;51.816;-0.026;2023-03-01T02:21:34;102626.36;;;19.80;35.55
69239;BME280;56349;51.816;-0.026;2023-03-01T02:23:52;102623.61;;;19.79;35.58
69239;BME280;56349;51.816;-0.026;2023-03-01T02:26:22;102622.57;;;19.79;35.60
69239;BME280;56349;51.816;-0.026;2023-03-01T02:28:43;102618.60;;;19.78;35.64
69239;BME280;56349;51.816;-0.026;2023-03-01T02:31:10;102617.63;;;19.78;35.66
69239;BME280;56349;51.816;-0.026;2023-03-01T02:33:36;102613.14;;;19.77;35.66
69239;BME280;56349;51.816;-0.026;2023-03-01T02:36:02;102614.04;;;19.75;35.75
69239;BME280;56349;51.816;-0.026;2023-03-01T02:38:26;102608.74;;;19.70;35.75
69239;BME280;56349;51.816;-0.026;2023-03-01T02:40:52;102609.20;;;19.93;35.77
69239;BME280;56349;51.816;-0.026;2023-03-01T02:43:19;102606.37;;;19.61;35.76
69239;BME280;56349;51.816;-0.026;2023-03-01T02:45:48;102607.64;;;19.57;35.79
69239;BME280;56349;51.816;-0.026;2023-03-01T02:48:09;102605.65;;;19.53;35.79
69239;BME280;56349;51.816;-0.026;2023-03-01T02:50:45;102604.33;;;19.76;35.78
69239;BME280;56349;51.816;-0.026;2023-03-01T02:53:04;102602.06;;;19.43;35.76
69239;BME280;56349;51.816;-0.026;2023-03-01T02:55:26;102601.92;;;19.64;35.76
69239;BME280;56349;51.816;-0.026;2023-03-01T02:57:51;102599.69;;;19.35;35.72
69239;BME280;56349;51.816;-0.026;2023-03-01T03:00:19;102599.03;;;19.30;35.74
69239;BME280;56349;51.816;-0.026;2023-03-01T03:02:43;102596.07;;;19.26;35.74
69239;BME280;56349;51.816;-0.026;2023-03-01T03:05:12;102594.61;;;19.22;35.78
69239;BME280;56349;51.816;-0.026;2023-03-01T03:07:35;102588.08;;;19.18;35.81
69239;BME280;56349;51.816;-0.026;2023-03-01T03:10:01;102587.78;;;19.16;35.81
69239;BME280;56349;51.816;-0.026;2023-03-01T03:12:26;102585.60;;;19.12;35.82
69239;BME280;56349;51.816;-0.026;2023-03-01T03:14:51;102586.21;;;19.08;35.87
69239;BME280;56349;51.816;-0.026;2023-03-01T03:17:17;102585.06;;;19.04;35.88
69239;BME280;56349;51.816;-0.026;2023-03-01T03:19:43;102582.21;;;19.49;35.90
69239;BME280;56349;51.816;-0.026;2023-03-01T03:22:09;102580.27;;;18.97;35.90
69239;BME280;56349;51.816;-0.026;2023-03-01T03:24:35;102578.77;;;19.20;35.93
69239;BME280;56349;51.816;-0.026;2023-03-01T03:27:01;102576.66;;;19.17;35.94
69239;BME280;56349;51.816;-0.026;2023-03-01T03:29:27;102576.61;;;19.13;35.95
69239;BME280;56349;51.816;-0.026;2023-03-01T03:31:53;102576.21;;;18.84;35.95
69239;BME280;56349;51.816;-0.026;2023-03-01T03:34:19;102577.54;;;18.82;35.96
69239;BME280;56349;51.816;-0.026;2023-03-01T03:36:45;102574.73;;;19.27;35.97
69239;BME280;56349;51.816;-0.026;2023-03-01T03:39:11;102569.24;;;18.74;35.98
69239;BME280;56349;51.816;-0.026;2023-03-01T03:41:37;102566.36;;;19.20;35.97
69239;BME280;56349;51.816;-0.026;2023-03-01T03:44:03;102564.77;;;19.18;35.98
69239;BME280;56349;51.816;-0.026;2023-03-01T03:46:29;102560.20;;;19.15;35.98
69239;BME280;56349;51.816;-0.026;2023-03-01T03:48:55;102556.20;;;18.91;35.98
69239;BME280;56349;51.816;-0.026;2023-03-01T03:51:21;102553.73;;;18.88;35.99
69239;BME280;56349;51.816;-0.026;2023-03-01T03:53:46;102552.12;;;19.07;36.00
69239;BME280;56349;51.816;-0.026;2023-03-01T03:56:13;102549.30;;;19.04;36.02
69239;BME280;56349;51.816;-0.026;2023-03-01T03:58:39;102545.17;;;19.01;36.02
69239;BME280;56349;51.816;-0.026;2023-03-01T04:01:05;102538.73;;;18.77;36.01
69239;BME280;56349;51.816;-0.026;2023-03-01T04:03:31;102535.86;;;18.96;36.02
69239;BME280;56349;51.816;-0.026;2023-03-01T04:05:58;102531.70;;;18.45;36.03
69239;BME280;56349;51.816;-0.026;2023-03-01T04:08:23;102529.49;;;18.71;36.01
69239;BME280;56349;51.816;-0.026;2023-03-01T04:10:48;102525.12;;;18.92;36.01
69239;BME280;56349;51.816;-0.026;2023-03-01T04:13:14;102522.52;;;18.89;36.01
69239;BME280;56349;51.816;-0.026;2023-03-01T04:15:39;102523.18;;;18.65;36.01
69239;BME280;56349;51.816;-0.026;2023-03-01T04:18:04;102522.26;;;18.86;36.02
69239;BME280;56349;51.816;-0.026;2023-03-01T04:20:32;102522.63;;;18.62;36.01
69239;BME280;56349;51.816;-0.026;2023-03-01T04:22:59;102518.48;;;18.62;35.98
69239;BME280;56349;51.816;-0.026;2023-03-01T04:25:21;102515.56;;;18.60;35.99
69239;BME280;56349;51.816;-0.026;2023-03-01T04:27:47;102515.11;;;18.80;35.98
69239;BME280;56349;51.816;-0.026;2023-03-01T04:30:14;102514.73;;;18.76;36.05
69239;BME280;56349;51.816;-0.026;2023-03-01T04:32:39;102513.49;;;18.75;36.12
69239;BME280;56349;51.816;-0.026;2023-03-01T04:35:05;102514.92;;;18.77;36.15
69239;BME280;56349;51.816;-0.026;2023-03-01T04:37:30;102511.60;;;18.60;36.17
69239;BME280;56349;51.816;-0.026;2023-03-01T04:39:55;102512.88;;;18.93;36.11
69239;BME280;56349;51.816;-0.026;2023-03-01T04:42:20;102512.17;;;19.06;36.01
69239;BME280;56349;51.816;-0.026;2023-03-01T04:44:46;102512.47;;;18.71;35.85
69239;BME280;56349;51.816;-0.026;2023-03-01T04:47:12;102512.24;;;19.37;35.68
69239;BME280;56349;51.816;-0.026;2023-03-01T04:49:37;102513.91;;;19.31;35.44
69239;BME280;56349;51.816;-0.026;2023-03-01T04:52:04;102514.55;;;19.17;35.26
69239;BME280;56349;51.816;-0.026;2023-03-01T04:54:29;102511.48;;;19.27;35.07
69239;BME280;56349;51.816;-0.026;2023-03-01T04:56:55;102509.51;;;19.33;34.93
69239;BME280;56349;51.816;-0.026;2023-03-01T04:59:21;102511.62;;;19.37;34.79
69239;BME280;56349;51.816;-0.026;2023-03-01T05:01:47;102514.34;;;19.39;34.70
69239;BME280;56349;51.816;-0.026;2023-03-01T05:04:13;102514.69;;;19.38;34.66
69239;BME280;56349;51.816;-0.026;2023-03-01T05:06:39;102512.21;;;19.38;34.63
69239;BME280;56349;51.816;-0.026;2023-03-01T05:09:05;102509.29;;;19.40;34.62
69239;BME280;56349;51.816;-0.026;2023-03-01T05:11:31;102506.84;;;19.40;34.67
69239;BME280;56349;51.816;-0.026;2023-03-01T05:13:57;102506.58;;;19.44;34.70
69239;BME280;56349;51.816;-0.026;2023-03-01T05:16:23;102505.01;;;19.41;34.81
69239;BME280;56349;51.816;-0.026;2023-03-01T05:18:49;102503.36;;;19.38;34.95
69239;BME280;56349;51.816;-0.026;2023-03-01T05:21:15;102505.35;;;19.35;35.11
69239;BME280;56349;51.816;-0.026;2023-03-01T05:23:41;102501.48;;;19.61;35.26
69239;BME280;56349;51.816;-0.026;2023-03-01T05:26:08;102498.83;;;19.33;35.42
69239;BME280;56349;51.816;-0.026;2023-03-01T05:28:33;102496.98;;;19.59;35.61
69239;BME280;56349;51.816;-0.026;2023-03-01T05:30:58;102493.47;;;19.58;35.78
69239;BME280;56349;51.816;-0.026;2023-03-01T05:33:24;102489.25;;;19.58;35.95
69239;BME280;56349;51.816;-0.026;2023-03-01T05:35:50;102488.44;;;19.59;36.07
69239;BME280;56349;51.816;-0.026;2023-03-01T05:38:15;102484.96;;;19.33;36.20
69239;BME280;56349;51.816;-0.026;2023-03-01T05:40:41;102480.86;;;19.35;36.31
69239;BME280;56349;51.816;-0.026;2023-03-01T05:43:06;102482.10;;;19.63;36.41
69239;BME280;56349;51.816;-0.026;2023-03-01T05:45:31;102484.07;;;19.87;36.49
69239;BME280;56349;51.816;-0.026;2023-03-01T05:47:56;102487.91;;;19.44;36.55
69239;BME280;56349;51.816;-0.026;2023-03-01T05:50:24;102486.54;;;19.49;36.58
69239;BME280;56349;51.816;-0.026;2023-03-01T05:52:49;102482.70;;;19.52;36.66
69239;BME280;56349;51.816;-0.026;2023-03-01T05:55:13;102483.76;;;19.55;36.71
69239;BME280;56349;51.816;-0.026;2023-03-01T05:57:39;102483.25;;;19.56;36.76
69239;BME280;56349;51.816;-0.026;2023-03-01T06:00:06;102485.91;;;19.58;36.83
69239;BME280;56349;51.816;-0.026;2023-03-01T06:02:30;102489.49;;;19.62;36.87
69239;BME280;56349;51.816;-0.026;2023-03-01T06:04:56;102489.58;;;19.65;36.89
69239;BME280;56349;51.816;-0.026;2023-03-01T06:07:22;102488.51;;;19.67;36.93
69239;BME280;56349;51.816;-0.026;2023-03-01T06:09:48;102488.92;;;19.71;36.96
69239;BME280;56349;51.816;-0.026;2023-03-01T06:12:14;102486.13;;;19.75;36.96
69239;BME280;56349;51.816;-0.026;2023-03-01T06:14:40;102488.45;;;19.79;36.95
69239;BME280;56349;51.816;-0.026;2023-03-01T06:17:06;102489.26;;;19.83;36.96
69239;BME280;56349;51.816;-0.026;2023-03-01T06:19:32;102493.53;;;19.86;36.98
69239;BME280;56349;51.816;-0.026;2023-03-01T06:21:57;102497.02;;;19.96;36.91
69239;BME280;56349;51.816;-0.026;2023-03-01T06:24:24;102496.06;;;19.55;36.90
69239;BME280;56349;51.816;-0.026;2023-03-01T06:26:48;102495.24;;;20.02;36.89
69239;BME280;56349;51.816;-0.026;2023-03-01T06:29:14;102498.47;;;19.81;36.86
69239;BME280;56349;51.816;-0.026;2023-03-01T06:31:40;102499.17;;;20.04;36.84
69239;BME280;56349;51.816;-0.026;2023-03-01T06:34:06;102499.09;;;20.05;36.78
69239;BME280;56349;51.816;-0.026;2023-03-01T06:36:32;102504.35;;;20.07;36.70
69239;BME280;56349;51.816;-0.026;2023-03-01T06:38:58;102502.63;;;20.10;36.59
69239;BME280;56349;51.816;-0.026;2023-03-01T06:41:24;102502.38;;;20.11;36.49
69239;BME280;56349;51.816;-0.026;2023-03-01T06:43:50;102503.63;;;20.12;36.38
69239;BME280;56349;51.816;-0.026;2023-03-01T06:46:16;102504.28;;;20.11;36.29
69239;BME280;56349;51.816;-0.026;2023-03-01T06:48:42;102503.90;;;20.11;36.19
69239;BME280;56349;51.816;-0.026;2023-03-01T06:51:08;102506.86;;;20.12;36.08
69239;BME280;56349;51.816;-0.026;2023-03-01T06:53:34;102509.60;;;20.12;35.97
69239;BME280;56349;51.816;-0.026;2023-03-01T06:56:00;102509.89;;;19.90;35.87
69239;BME280;56349;51.816;-0.026;2023-03-01T06:58:26;102509.35;;;19.68;35.78
69239;BME280;56349;51.816;-0.026;2023-03-01T07:00:52;102509.71;;;19.88;35.70
69239;BME280;56349;51.816;-0.026;2023-03-01T07:03:18;102505.20;;;19.87;35.61
69239;BME280;56349;51.816;-0.026;2023-03-01T07:05:44;102503.18;;;20.08;35.51
69239;BME280;56349;51.816;-0.026;2023-03-01T07:08:10;102503.56;;;20.05;35.45
69239;BME280;56349;51.816;-0.026;2023-03-01T07:10:36;102505.07;;;20.03;35.39
69239;BME280;56349;51.816;-0.026;2023-03-01T07:13:02;102508.58;;;20.00;35.34
69239;BME280;56349;51.816;-0.026;2023-03-01T07:15:28;102514.54;;;19.75;35.28
69239;BME280;56349;51.816;-0.026;2023-03-01T07:17:54;102513.47;;;19.75;35.25
69239;BME280;56349;51.816;-0.026;2023-03-01T07:20:20;102514.34;;;19.74;35.17
69239;BME280;56349;51.816;-0.026;2023-03-01T07:22:45;102516.13;;;20.22;35.14
69239;BME280;56349;51.816;-0.026;2023-03-01T07:25:11;102517.27;;;19.95;35.11
69239;BME280;56349;51.816;-0.026;2023-03-01T07:27:37;102517.39;;;19.72;35.12
69239;BME280;56349;51.816;-0.026;2023-03-01T07:30:04;102515.40;;;19.95;35.18
69239;BME280;56349;51.816;-0.026;2023-03-01T07:32:34;102516.21;;;19.71;35.26
69239;BME280;56349;51.816;-0.026;2023-03-01T07:34:54;102518.55;;;19.94;35.24
69239;BME280;56349;51.816;-0.026;2023-03-01T07:37:21;102520.25;;;19.95;35.32
69239;BME280;56349;51.816;-0.026;2023-03-01T07:39:46;102522.89;;;19.99;35.49
69239;BME280;56349;51.816;-0.026;2023-03-01T07:42:12;102525.87;;;19.83;35.58
69239;BME280;56349;51.816;-0.026;2023-03-01T07:44:40;102523.10;;;19.69;35.63
69239;BME280;56349;51.816;-0.026;2023-03-01T07:47:03;102517.22;;;20.05;35.59
69239;BME280;56349;51.816;-0.026;2023-03-01T07:49:28;102523.60;;;20.47;35.49
69239;BME280;56349;51.816;-0.026;2023-03-01T07:51:55;102524.27;;;20.23;35.36
69239;BME280;56349;51.816;-0.026;2023-03-01T07:54:20;102525.77;;;20.68;35.20
69239;BME280;56349;51.816;-0.026;2023-03-01T07:56:45;102523.15;;;20.68;35.00
69239;BME280;56349;51.816;-0.026;2023-03-01T07:59:11;102530.91;;;20.93;34.78
69239;BME280;56349;51.816;-0.026;2023-03-01T08:01:36;102529.21;;;20.91;34.55
69239;BME280;56349;51.816;-0.026;2023-03-01T08:04:01;102525.34;;;21.18;34.29
69239;BME280;56349;51.816;-0.026;2023-03-01T08:06:26;102522.67;;;21.46;34.02
69239;BME280;56349;51.816;-0.026;2023-03-01T08:08:52;102524.91;;;21.50;33.78
69239;BME280;56349;51.816;-0.026;2023-03-01T08:11:18;102522.01;;;21.79;33.58
69239;BME280;56349;51.816;-0.026;2023-03-01T08:13:43;102514.84;;;21.82;33.36
69239;BME280;56349;51.816;-0.026;2023-03-01T08:16:12;102511.09;;;22.03;33.13
69239;BME280;56349;51.816;-0.026;2023-03-01T08:18:38;102508.91;;;22.28;32.83
69239;BME280;56349;51.816;-0.026;2023-03-01T08:21:03;102504.94;;;22.21;32.56
69239;BME280;56349;51.816;-0.026;2023-03-01T08:23:27;102504.73;;;22.44;32.24
69239;BME280;56349;51.816;-0.026;2023-03-01T08:25:53;102496.07;;;22.64;31.91
69239;BME280;56349;51.816;-0.026;2023-03-01T08:28:19;102494.33;;;22.86;31.64
69239;BME280;56349;51.816;-0.026;2023-03-01T08:30:45;102493.20;;;22.84;31.32
69239;BME280;56349;51.816;-0.026;2023-03-01T08:33:11;102492.01;;;22.77;31.06
69239;BME280;56349;51.816;-0.026;2023-03-01T08:35:37;102487.93;;;23.45;30.76
69239;BME280;56349;51.816;-0.026;2023-03-01T08:38:03;102482.09;;;23.65;30.46
69239;BME280;56349;51.816;-0.026;2023-03-01T08:40:29;102477.52;;;23.12;30.19
69239;BME280;56349;51.816;-0.026;2023-03-01T08:42:55;102474.93;;;23.47;29.97
69239;BME280;56349;51.816;-0.026;2023-03-01T08:45:22;102472.23;;;23.60;29.78
69239;BME280;56349;51.816;-0.026;2023-03-01T08:47:46;102473.44;;;23.54;29.54
69239;BME280;56349;51.816;-0.026;2023-03-01T08:50:12;102464.93;;;23.49;29.32
69239;BME280;56349;51.816;-0.026;2023-03-01T08:52:43;102461.08;;;23.82;29.16
69239;BME280;56349;51.816;-0.026;2023-03-01T08:55:06;102459.38;;;23.68;28.97
69239;BME280;56349;51.816;-0.026;2023-03-01T08:57:30;102455.18;;;23.75;28.66
69239;BME280;56349;51.816;-0.026;2023-03-01T08:59:55;102455.62;;;23.80;28.40
69239;BME280;56349;51.816;-0.026;2023-03-01T09:02:22;102455.19;;;23.84;28.23
69239;BME280;56349;51.816;-0.026;2023-03-01T09:04:47;102457.79;;;23.91;28.13
69239;BME280;56349;51.816;-0.026;2023-03-01T09:07:13;102461.46;;;24.00;28.02
69239;BME280;56349;51.816;-0.026;2023-03-01T09:09:38;102458.20;;;24.08;27.89
69239;BME280;56349;51.816;-0.026;2023-03-01T09:12:05;102460.41;;;24.19;27.75
69239;BME280;56349;51.816;-0.026;2023-03-01T09:14:31;102462.92;;;24.24;27.64
69239;BME280;56349;51.816;-0.026;2023-03-01T09:16:56;102467.34;;;24.28;27.55
69239;BME280;56349;51.816;-0.026;2023-03-01T09:19:22;102465.91;;;24.33;27.56
69239;BME280;56349;51.816;-0.026;2023-03-01T09:21:48;102463.94;;;24.40;27.58
69239;BME280;56349;51.816;-0.026;2023-03-01T09:24:14;102462.98;;;24.47;27.53
69239;BME280;56349;51.816;-0.026;2023-03-01T09:26:39;102461.91;;;24.53;27.47
69239;BME280;56349;51.816;-0.026;2023-03-01T09:29:05;102462.45;;;24.59;27.44
69239;BME280;56349;51.816;-0.026;2023-03-01T09:31:31;102461.61;;;24.65;27.37
69239;BME280;56349;51.816;-0.026;2023-03-01T09:33:57;102462.65;;;24.75;27.29
69239;BME280;56349;51.816;-0.026;2023-03-01T09:36:24;102460.73;;;24.83;27.20
69239;BME280;56349;51.816;-0.026;2023-03-01T09:38:49;102452.78;;;24.63;27.11
69239;BME280;56349;51.816;-0.026;2023-03-01T09:41:26;102447.46;;;24.94;27.03
69239;BME280;56349;51.816;-0.026;2023-03-01T09:43:44;102448.60;;;24.70;26.95
69239;BME280;56349;51.816;-0.026;2023-03-01T09:46:09;102443.69;;;24.72;26.90
69239;BME280;56349;51.816;-0.026;2023-03-01T09:48:38;102440.71;;;25.03;26.83
69239;BME280;56349;51.816;-0.026;2023-03-01T09:50:58;102437.94;;;25.04;26.78
69239;BME280;56349;51.816;-0.026;2023-03-01T09:53:26;102439.63;;;25.06;26.73
69239;BME280;56349;51.816;-0.026;2023-03-01T09:55:54;102441.57;;;24.79;26.67
69239;BME280;56349;51.816;-0.026;2023-03-01T10:00:43;102440.90;;;25.02;26.62
69239;BME280;56349;51.816;-0.026;2023-03-01T10:03:13;102437.85;;;25.00;26.61
69239;BME280;56349;51.816;-0.026;2023-03-01T10:05:36;102438.29;;;24.72;26.63
69239;BME280;56349;51.816;-0.026;2023-03-01T10:08:11;102439.01;;;24.72;26.62
69239;BME280;56349;51.816;-0.026;2023-03-01T10:10:26;102439.32;;;24.99;26.58
69239;BME280;56349;51.816;-0.026;2023-03-01T10:12:47;102435.92;;;25.00;26.55
69239;BME280;56349;51.816;-0.026;2023-03-01T10:15:17;102431.67;;;24.74;26.54
69239;BME280;56349;51.816;-0.026;2023-03-01T10:17:42;102430.53;;;24.75;26.54
69239;BME280;56349;51.816;-0.026;2023-03-01T10:22:30;102426.04;;;25.08;26.47
69239;BME280;56349;51.816;-0.026;2023-03-01T10:24:57;102422.63;;;24.83;26.46
69239;BME280;56349;51.816;-0.026;2023-03-01T10:27:23;102423.42;;;24.84;26.39
69239;BME280;56349;51.816;-0.026;2023-03-01T10:29:50;102421.65;;;24.85;26.34
69239;BME280;56349;51.816;-0.026;2023-03-01T10:32:11;102421.39;;;24.87;26.28
69239;BME280;56349;51.816;-0.026;2023-03-01T10:34:37;102418.11;;;24.89;26.25
69239;BME280;56349;51.816;-0.026;2023-03-01T10:37:09;102414.40;;;25.17;26.23
69239;BME280;56349;51.816;-0.026;2023-03-01T10:39:27;102412.15;;;25.18;26.18
69239;BME280;56349;51.816;-0.026;2023-03-01T10:41:55;102412.13;;;24.92;26.11
69239;BME280;56349;51.816;-0.026;2023-03-01T10:46:43;102407.06;;;24.77;26.05
69239;BME280;56349;51.816;-0.026;2023-03-01T10:49:14;102403.54;;;24.92;26.05
69239;BME280;56349;51.816;-0.026;2023-03-01T10:51:39;102400.26;;;25.00;26.08
69239;BME280;56349;51.816;-0.026;2023-03-01T10:54:01;102401.10;;;24.62;26.20
69239;BME280;56349;51.816;-0.026;2023-03-01T10:56:26;102402.01;;;24.42;26.33
69239;BME280;56349;51.816;-0.026;2023-03-01T10:58:58;102393.75;;;24.16;26.43
69239;BME280;56349;51.816;-0.026;2023-03-01T11:01:25;102392.29;;;24.34;26.58
69239;BME280;56349;51.816;-0.026;2023-03-01T11:03:43;102382.00;;;24.09;26.76
69239;BME280;56349;51.816;-0.026;2023-03-01T11:08:39;102379.18;;;23.64;27.07
69239;BME280;56349;51.816;-0.026;2023-03-01T11:11:05;102372.41;;;23.69;27.22
69239;BME280;56349;51.816;-0.026;2023-03-01T11:13:24;102372.40;;;23.23;27.38
69239;BME280;56349;51.816;-0.026;2023-03-01T11:15:58;102367.39;;;23.51;27.51
69239;BME280;56349;51.816;-0.026;2023-03-01T11:18:20;102371.69;;;23.28;27.67
69239;BME280;56349;51.816;-0.026;2023-03-01T11:20:42;102364.11;;;23.04;27.85
69239;BME280;56349;51.816;-0.026;2023-03-01T11:23:10;102365.24;;;22.82;28.00
69239;BME280;56349;51.816;-0.026;2023-03-01T11:25:37;102363.73;;;22.61;28.16
69239;BME280;56349;51.816;-0.026;2023-03-01T11:28:02;102363.66;;;22.40;28.33
69239;BME280;56349;51.816;-0.026;2023-03-01T11:30:29;102357.23;;;22.66;28.50
69239;BME280;56349;51.816;-0.026;2023-03-01T11:32:59;102354.77;;;22.43;28.69
69239;BME280;56349;51.816;-0.026;2023-03-01T11:35:19;102354.02;;;21.71;28.88
69239;BME280;56349;51.816;-0.026;2023-03-01T11:37:47;102353.91;;;22.00;29.06
69239;BME280;56349;51.816;-0.026;2023-03-01T11:40:13;102347.84;;;21.80;29.23
69239;BME280;56349;51.816;-0.026;2023-03-01T11:42:43;102347.26;;;21.61;29.41
69239;BME280;56349;51.816;-0.026;2023-03-01T11:44:59;102338.65;;;21.42;29.62
69239;BME280;56349;51.816;-0.026;2023-03-01T11:47:32;102332.32;;;21.28;29.79
69239;BME280;56349;51.816;-0.026;2023-03-01T11:52:22;102325.91;;;21.55;30.05
69239;BME280;56349;51.816;-0.026;2023-03-01T11:54:51;102317.42;;;21.45;30.16
69239;BME280;56349;51.816;-0.026;2023-03-01T11:57:14;102314.22;;;20.83;30.28
69239;BME280;56349;51.816;-0.026;2023-03-01T11:59:51;102307.17;;;20.95;30.37
69239;BME280;56349;51.816;-0.026;2023-03-01T12:02:14;102307.94;;;21.10;30.51
69239;BME280;56349;51.816;-0.026;2023-03-01T12:04:48;102301.31;;;21.02;30.62
69239;BME280;56349;51.816;-0.026;2023-03-01T12:06:57;102296.98;;;20.93;30.74
69239;BME280;56349;51.816;-0.026;2023-03-01T12:09:25;102291.59;;;20.60;30.87
69239;BME280;56349;51.816;-0.026;2023-03-01T12:11:52;102286.07;;;20.86;30.93
69239;BME280;56349;51.816;-0.026;2023-03-01T12:14:15;102280.34;;;20.55;31.11
69239;BME280;56349;51.816;-0.026;2023-03-01T12:16:40;102275.47;;;20.82;31.34
69239;BME280;56349;51.816;-0.026;2023-03-01T12:19:10;102275.85;;;20.85;31.54
69239;BME280;56349;51.816;-0.026;2023-03-01T12:21:32;102267.12;;;20.82;31.74
69239;BME280;56349;51.816;-0.026;2023-03-01T12:24:00;102261.59;;;20.51;32.09
69239;BME280;56349;51.816;-0.026;2023-03-01T12:26:23;102260.29;;;20.79;32.26
69239;BME280;56349;51.816;-0.026;2023-03-01T12:28:51;102258.16;;;20.81;32.43
69239;BME280;56349;51.816;-0.026;2023-03-01T12:31:21;102253.02;;;20.81;32.65
69239;BME280;56349;51.816;-0.026;2023-03-01T12:33:39;102251.43;;;20.79;32.86
69239;BME280;56349;51.816;-0.026;2023-03-01T12:38:33;102246.58;;;20.88;33.33
69239;BME280;56349;51.816;-0.026;2023-03-01T12:41:02;102242.95;;;20.97;33.57
69239;BME280;56349;51.816;-0.026;2023-03-01T12:43:27;102242.57;;;20.80;33.85
69239;BME280;56349;51.816;-0.026;2023-03-01T12:45:47;102239.67;;;21.21;33.98
69239;BME280;56349;51.816;-0.026;2023-03-01T12:48:17;102231.38;;;21.16;34.07